createdAt,value
2023-05-14T00:01:10.352Z,98958.94
2023-05-14T00:03:38.884Z,98959.88
2023-05-14T00:06:05.867Z,98957.41
2023-05-14T00:08:33.055Z,98966.06
2023-05-14T00:11:00.064Z,98957.31
2023-05-14T00:13:27.241Z,98951.25
2023-05-14T00:15:54.093Z,98950.28
2023-05-14T00:18:21.329Z,98945.94
2023-05-14T00:20:48.366Z,98934.81
2023-05-14T00:23:15.465Z,98932.41
2023-05-14T00:25:42.427Z,98936.09
2023-05-14T00:28:09.530Z,98939.03
2023-05-14T00:30:36.388Z,98941.13
2023-05-14T00:33:04.079Z,98936.56
2023-05-14T00:35:31.018Z,98943.78
2023-05-14T00:37:58.117Z,98942.13
2023-05-14T00:40:27.748Z,98941.81
2023-05-14T00:42:56.507Z,98941.81
2023-05-14T00:45:23.590Z,98942.19
2023-05-14T00:47:52.411Z,98938.56
2023-05-14T00:50:20.030Z,98939.63
2023-05-14T00:52:47.915Z,98940.66
2023-05-14T00:55:17.613Z,98938.78
2023-05-14T00:57:45.258Z,98943.13
2023-05-14T01:00:12.920Z,98938.06
2023-05-14T01:02:40.230Z,98945.19
2023-05-14T01:05:09.079Z,98943.03
2023-05-14T01:08:04.548Z,98923.44
2023-05-14T01:11:05.308Z,98922.63
2023-05-14T01:13:52.736Z,98922.53
2023-05-14T01:16:20.267Z,98921.63
2023-05-14T01:18:51.715Z,98929.50
2023-05-14T01:21:40.934Z,98928.75
2023-05-14T01:24:08.930Z,98929.59
2023-05-14T01:26:37.074Z,98937.28
2023-05-14T01:29:26.217Z,98921.34
2023-05-14T01:31:57.742Z,98922.97
2023-05-14T01:34:31.318Z,98917.81
2023-05-14T01:36:59.971Z,98915.53
2023-05-14T01:39:28.251Z,98918.19
2023-05-14T01:41:56.412Z,98914.41
2023-05-14T01:44:25.260Z,98923.22
2023-05-14T01:46:52.772Z,98911.75
2023-05-14T01:49:20.017Z,98911.56
2023-05-14T01:51:47.008Z,98908.31
2023-05-14T01:54:14.109Z,98906.44
2023-05-14T01:56:41.179Z,98903.09
2023-05-14T01:59:08.433Z,98905.25
2023-05-14T02:01:35.483Z,98896.78
2023-05-14T02:04:02.676Z,98896.97
2023-05-14T02:06:29.705Z,98899.72
2023-05-14T02:08:56.835Z,98898.09
2023-05-14T02:11:23.849Z,98897.13
2023-05-14T02:13:51.155Z,98888.41
2023-05-14T02:16:19.321Z,98887.56
2023-05-14T02:18:46.529Z,98892.19
2023-05-14T02:21:13.434Z,98896.94
2023-05-14T02:23:42.141Z,98899.41
2023-05-14T02:26:10.820Z,98904.34
2023-05-14T02:28:38.351Z,98901.59
2023-05-14T02:31:05.556Z,98902.44
2023-05-14T02:33:32.942Z,98899.72
2023-05-14T02:35:59.969Z,98897.94
2023-05-14T02:38:27.291Z,98891.66
2023-05-14T02:40:54.372Z,98892.69
2023-05-14T02:43:21.656Z,98890.81
2023-05-14T02:45:48.869Z,98889.97
2023-05-14T02:48:15.996Z,98888.25
2023-05-14T02:50:42.986Z,98883.09
2023-05-14T02:53:10.289Z,98883.94
2023-05-14T02:55:37.464Z,98882.44
2023-05-14T02:58:04.546Z,98882.59
2023-05-14T03:00:31.530Z,98875.94
2023-05-14T03:02:59.033Z,98876.03
2023-05-14T03:05:26.274Z,98878.00
2023-05-14T03:07:53.746Z,98882.81
2023-05-14T03:10:20.917Z,98877.59
2023-05-14T03:12:48.175Z,98883.66
2023-05-14T03:15:15.206Z,98876.66
2023-05-14T03:17:42.514Z,98877.66
2023-05-14T03:20:10.746Z,98878.88
2023-05-14T03:22:38.024Z,98883.34
2023-05-14T03:25:05.381Z,98882.63
2023-05-14T03:27:33.706Z,98875.88
2023-05-14T03:30:00.952Z,98881.38
2023-05-14T03:32:28.368Z,98882.25
2023-05-14T03:34:55.712Z,98880.66
2023-05-14T03:37:23.235Z,98872.69
2023-05-14T03:39:50.156Z,98877.00
2023-05-14T03:42:17.310Z,98879.59
2023-05-14T03:44:44.488Z,98870.81
2023-05-14T03:47:11.834Z,98872.38
2023-05-14T03:49:38.743Z,98874.06
2023-05-14T03:52:06.015Z,98872.38
2023-05-14T03:54:32.871Z,98875.81
2023-05-14T03:57:00.073Z,98874.78
2023-05-14T03:59:26.974Z,98871.50
2023-05-14T04:01:54.206Z,98876.66
2023-05-14T04:04:21.209Z,98878.28
2023-05-14T04:06:48.413Z,98875.25
2023-05-14T04:09:15.500Z,98869.78
2023-05-14T04:11:42.651Z,98866.78
2023-05-14T04:14:09.559Z,98867.47
2023-05-14T04:16:36.771Z,98866.78
2023-05-14T04:19:07.278Z,98866.97
2023-05-14T04:21:34.428Z,98873.03
2023-05-14T04:24:01.542Z,98861.81
2023-05-14T04:26:28.645Z,98865.53
2023-05-14T04:28:55.748Z,98861.81
2023-05-14T04:31:22.993Z,98865.25
2023-05-14T04:33:49.877Z,98862.78
2023-05-14T04:36:17.715Z,98865.53
2023-05-14T04:38:44.646Z,98856.69
2023-05-14T04:41:11.835Z,98862.88
2023-05-14T04:43:40.124Z,98854.75
2023-05-14T04:46:07.471Z,98855.66
2023-05-14T04:48:34.407Z,98853.00
2023-05-14T04:51:01.613Z,98855.59
2023-05-14T04:53:28.487Z,98853.09
2023-05-14T04:55:55.699Z,98848.47
2023-05-14T04:58:24.126Z,98857.38
2023-05-14T05:00:51.283Z,98862.09
2023-05-14T05:03:18.214Z,98854.81
2023-05-14T05:05:45.398Z,98845.31
2023-05-14T05:08:12.227Z,98851.28
2023-05-14T05:10:39.162Z,98850.09
2023-05-14T05:13:06.298Z,98846.56
2023-05-14T05:15:33.249Z,98860.34
2023-05-14T05:18:00.869Z,98853.25
2023-05-14T05:20:28.306Z,98844.16
2023-05-14T05:22:55.456Z,98853.69
2023-05-14T05:25:22.397Z,98846.38
2023-05-14T05:27:49.747Z,98852.88
2023-05-14T05:30:16.940Z,98847.22
2023-05-14T05:32:44.348Z,98846.72
2023-05-14T05:35:11.345Z,98842.69
2023-05-14T05:37:38.534Z,98849.25
2023-05-14T05:40:06.977Z,98845.97
2023-05-14T05:42:34.122Z,98843.13
2023-05-14T05:45:00.996Z,98845.19
2023-05-14T05:47:28.178Z,98846.63
2023-05-14T05:49:55.048Z,98847.56
2023-05-14T05:52:22.191Z,98842.09
2023-05-14T05:54:49.135Z,98839.50
2023-05-14T05:57:16.545Z,98835.91
2023-05-14T05:59:43.592Z,98838.41
2023-05-14T06:02:10.931Z,98831.75
2023-05-14T06:04:37.899Z,98840.31
2023-05-14T06:07:05.246Z,98829.50
2023-05-14T06:09:32.179Z,98833.22
2023-05-14T06:11:59.318Z,98827.50
2023-05-14T06:14:26.274Z,98833.97
2023-05-14T06:16:53.563Z,98831.06
2023-05-14T06:19:20.656Z,98831.53
2023-05-14T06:21:47.814Z,98835.81
2023-05-14T06:24:14.656Z,98830.50
2023-05-14T06:26:41.782Z,98830.59
2023-05-14T06:29:08.683Z,98841.41
2023-05-14T06:31:35.881Z,98839.50
2023-05-14T06:34:03.025Z,98835.41
2023-05-14T06:36:30.492Z,98836.00
2023-05-14T06:38:57.769Z,98841.50
2023-05-14T06:41:25.038Z,98833.41
2023-05-14T06:43:51.939Z,98843.22
2023-05-14T06:46:19.047Z,98840.38
2023-05-14T06:48:45.993Z,98832.84
2023-05-14T06:51:13.403Z,98836.88
2023-05-14T06:53:41.217Z,98833.31
2023-05-14T06:56:08.398Z,98835.38
2023-05-14T06:58:35.425Z,98834.81
2023-05-14T07:01:02.598Z,98844.38
2023-05-14T07:03:29.499Z,98839.91
2023-05-14T07:05:56.669Z,98836.13
2023-05-14T07:08:23.574Z,98836.78
2023-05-14T07:10:50.876Z,98837.94
2023-05-14T07:13:17.766Z,98830.63
2023-05-14T07:15:44.946Z,98827.31
2023-05-14T07:18:11.856Z,98824.75
2023-05-14T07:20:39.458Z,98825.53
2023-05-14T07:23:06.430Z,98823.34
2023-05-14T07:25:33.634Z,98821.16
2023-05-14T07:28:00.615Z,98811.09
2023-05-14T07:30:27.935Z,98820.47
2023-05-14T07:32:54.977Z,98819.53
2023-05-14T07:35:22.962Z,98814.50
2023-05-14T07:37:50.023Z,98812.16
2023-05-14T07:40:17.334Z,98815.69
2023-05-14T07:42:44.299Z,98814.63
2023-05-14T07:45:11.687Z,98810.91
2023-05-14T07:47:40.901Z,98812.22
2023-05-14T07:50:08.857Z,98801.03
2023-05-14T07:52:35.942Z,98797.09
2023-05-14T07:55:04.285Z,98789.53
2023-05-14T07:57:31.220Z,98796.34
2023-05-14T07:59:58.463Z,98789.53
2023-05-14T08:02:25.488Z,98785.59
2023-05-14T08:04:53.106Z,98782.50
2023-05-14T08:07:20.052Z,98782.28
2023-05-14T08:09:47.404Z,98787.41
2023-05-14T08:12:14.402Z,98788.25
2023-05-14T08:14:41.484Z,98785.38
2023-05-14T08:17:08.480Z,98775.69
2023-05-14T08:19:35.772Z,98775.69
2023-05-14T08:22:02.706Z,98775.94
2023-05-14T08:24:29.934Z,98774.28
2023-05-14T08:26:56.975Z,98772.75
2023-05-14T08:29:24.193Z,98770.41
2023-05-14T08:31:51.400Z,98775.53
2023-05-14T08:34:18.611Z,98771.91
2023-05-14T08:36:45.938Z,98774.47
2023-05-14T08:39:13.724Z,98771.81
2023-05-14T08:41:41.424Z,98762.63
2023-05-14T08:44:14.639Z,98763.66
2023-05-14T08:46:42.020Z,98762.41
2023-05-14T08:49:40.827Z,98767.03
2023-05-14T08:52:13.143Z,98753.19
2023-05-14T08:54:40.963Z,98749.38
2023-05-14T08:57:10.731Z,98744.81
2023-05-14T08:59:38.213Z,98741.06
2023-05-14T09:02:07.053Z,98743.03
2023-05-14T09:04:37.026Z,98733.06
2023-05-14T09:07:04.354Z,98740.13
2023-05-14T09:09:31.890Z,98735.28
2023-05-14T09:11:58.806Z,98736.84
2023-05-14T09:14:26.338Z,98726.88
2023-05-14T09:16:54.775Z,98730.97
2023-05-14T09:19:22.364Z,98722.22
2023-05-14T09:21:50.285Z,98718.84
2023-05-14T09:24:26.313Z,98720.03
2023-05-14T09:26:58.641Z,98711.66
2023-05-14T09:29:27.662Z,98713.13
2023-05-14T09:31:56.679Z,98715.47
2023-05-14T09:34:33.445Z,98711.09
2023-05-14T09:37:03.927Z,98708.66
2023-05-14T09:39:33.704Z,98703.44
2023-05-14T09:42:01.207Z,98705.25
2023-05-14T09:44:29.186Z,98693.94
2023-05-14T09:46:56.746Z,98691.78
2023-05-14T09:49:24.059Z,98693.84
2023-05-14T09:51:51.674Z,98688.13
2023-05-14T09:54:18.865Z,98694.56
2023-05-14T09:56:45.889Z,98690.78
2023-05-14T09:59:13.145Z,98690.31
2023-05-14T10:01:43.999Z,98690.06
2023-05-14T10:04:12.601Z,98678.41
2023-05-14T10:06:42.473Z,98682.41
2023-05-14T10:09:13.831Z,98679.97
2023-05-14T10:11:45.398Z,98678.16
2023-05-14T10:14:26.848Z,98671.97
2023-05-14T10:17:00.726Z,98676.00
2023-05-14T10:19:32.534Z,98673.56
2023-05-14T10:22:11.346Z,98670.16
2023-05-14T10:24:39.281Z,98671.97
2023-05-14T10:27:07.161Z,98670.75
2023-05-14T10:29:36.509Z,98669.53
2023-05-14T10:32:09.585Z,98669.16
2023-05-14T10:34:46.213Z,98671.44
2023-05-14T10:37:20.956Z,98653.72
2023-05-14T10:40:14.697Z,98662.34
2023-05-14T10:42:43.745Z,98662.97
2023-05-14T10:45:15.835Z,98665.75
2023-05-14T10:47:46.800Z,98658.84
2023-05-14T10:50:17.748Z,98664.31
2023-05-14T10:52:46.270Z,98662.00
2023-05-14T10:55:16.178Z,98648.28
2023-05-14T10:57:46.583Z,98645.34
2023-05-14T11:00:15.380Z,98651.06
2023-05-14T11:02:45.126Z,98651.06
2023-05-14T11:05:16.985Z,98644.88
2023-05-14T11:07:46.728Z,98643.28
2023-05-14T11:10:16.809Z,98645.72
2023-05-14T11:12:51.050Z,98639.16
2023-05-14T11:15:23.512Z,98641.34
2023-05-14T11:17:52.324Z,98639.50
2023-05-14T11:20:20.770Z,98637.44
2023-05-14T11:22:51.645Z,98624.19
2023-05-14T11:25:19.000Z,98629.53
2023-05-14T11:27:48.338Z,98624.88
2023-05-14T11:30:20.736Z,98618.53
2023-05-14T11:32:50.379Z,98624.97
2023-05-14T11:35:18.476Z,98624.19
2023-05-14T11:37:52.642Z,98632.44
2023-05-14T11:40:20.220Z,98627.66
2023-05-14T11:42:52.950Z,98630.44
2023-05-14T11:45:27.736Z,98627.28
2023-05-14T11:47:54.967Z,98627.66
2023-05-14T11:50:25.294Z,98615.97
2023-05-14T11:52:57.501Z,98621.44
2023-05-14T11:55:24.703Z,98610.00
2023-05-14T11:57:52.170Z,98613.78
2023-05-14T12:00:22.249Z,98609.34
2023-05-14T12:02:50.239Z,98605.41
2023-05-14T12:05:17.419Z,98602.28
2023-05-14T12:07:46.303Z,98597.25
2023-05-14T12:10:14.008Z,98595.31
2023-05-14T12:12:46.423Z,98593.59
2023-05-14T12:15:17.047Z,98592.06
2023-05-14T12:17:51.974Z,98585.38
2023-05-14T12:20:19.063Z,98578.66
2023-05-14T12:22:46.314Z,98570.84
2023-05-14T12:25:14.119Z,98583.25
2023-05-14T12:27:45.435Z,98580.16
2023-05-14T12:30:21.235Z,98576.00
2023-05-14T12:32:52.765Z,98580.53
2023-05-14T12:35:22.833Z,98564.91
2023-05-14T12:37:50.929Z,98563.28
2023-05-14T12:40:18.007Z,98562.22
2023-05-14T12:42:45.286Z,98553.81
2023-05-14T12:45:12.317Z,98556.81
2023-05-14T12:47:39.487Z,98558.06
2023-05-14T12:50:07.411Z,98552.06
2023-05-14T12:52:39.289Z,98557.13
2023-05-14T12:55:10.816Z,98548.31
2023-05-14T12:57:40.239Z,98543.81
2023-05-14T13:00:13.951Z,98545.53
2023-05-14T13:02:45.537Z,98545.94
2023-05-14T13:05:13.013Z,98536.06
2023-05-14T13:07:40.579Z,98538.28
2023-05-14T13:10:08.513Z,98540.66
2023-05-14T13:12:35.768Z,98539.03
2023-05-14T13:15:02.836Z,98533.78
2023-05-14T13:17:30.643Z,98534.56
2023-05-14T13:19:57.623Z,98531.03
2023-05-14T13:22:24.848Z,98530.28
2023-05-14T13:24:51.712Z,98525.78
2023-05-14T13:27:18.872Z,98526.91
2023-05-14T13:29:45.804Z,98522.38
2023-05-14T13:32:13.090Z,98523.53
2023-05-14T13:34:40.178Z,98512.38
2023-05-14T13:37:07.437Z,98505.59
2023-05-14T13:39:35.034Z,98506.31
2023-05-14T13:42:02.388Z,98499.94
2023-05-14T13:44:29.558Z,98497.50
2023-05-14T13:46:56.854Z,98496.94
2023-05-14T13:49:23.905Z,98497.88
2023-05-14T13:51:51.133Z,98497.56
2023-05-14T13:54:18.484Z,98487.72
2023-05-14T13:56:45.902Z,98490.41
2023-05-14T13:59:12.917Z,98490.22
2023-05-14T14:01:40.349Z,98495.19
2023-05-14T14:04:08.074Z,98494.56
2023-05-14T14:06:35.450Z,98496.09
2023-05-14T14:09:02.931Z,98507.19
2023-05-14T14:11:30.320Z,98491.97
2023-05-14T14:13:57.342Z,98491.06
2023-05-14T14:16:24.680Z,98487.81
2023-05-14T14:18:51.746Z,98493.09
2023-05-14T14:21:21.038Z,98490.75
2023-05-14T14:23:48.377Z,98494.44
2023-05-14T14:26:16.000Z,98497.03
2023-05-14T14:28:43.104Z,98491.03
2023-05-14T14:31:11.247Z,98485.53
2023-05-14T14:33:38.232Z,98495.31
2023-05-14T14:36:06.460Z,98500.09
2023-05-14T14:38:33.461Z,98498.41
2023-05-14T14:41:03.267Z,98497.66
2023-05-14T14:43:30.311Z,98500.19
2023-05-14T14:45:57.824Z,98502.22
2023-05-14T14:48:37.387Z,98493.59
2023-05-14T14:51:06.764Z,98496.91
2023-05-14T14:53:36.651Z,98500.47
2023-05-14T14:56:13.039Z,98501.31
2023-05-14T14:58:42.035Z,98506.22
2023-05-14T15:01:09.533Z,98502.19
2023-05-14T15:03:36.753Z,98506.59
2023-05-14T15:06:04.216Z,98505.25
2023-05-14T15:08:31.199Z,98502.81
2023-05-14T15:10:59.424Z,98508.38
2023-05-14T15:13:27.178Z,98506.50
2023-05-14T15:15:54.606Z,98514.28
2023-05-14T15:18:21.602Z,98516.09
2023-05-14T15:20:49.252Z,98509.19
2023-05-14T15:23:16.393Z,98515.81
2023-05-14T15:25:43.740Z,98508.94
2023-05-14T15:28:11.347Z,98504.56
2023-05-14T15:30:38.747Z,98506.47
2023-05-14T15:33:08.673Z,98502.56
2023-05-14T15:35:36.703Z,98500.66
2023-05-14T15:38:03.931Z,98507.06
2023-05-14T15:40:31.239Z,98508.63
2023-05-14T15:42:58.147Z,98503.53
2023-05-14T15:45:25.590Z,98503.06
2023-05-14T15:47:52.610Z,98512.53
2023-05-14T15:50:20.556Z,98518.63
2023-05-14T15:52:48.135Z,98516.28
2023-05-14T15:55:15.556Z,98513.97
2023-05-14T15:57:42.506Z,98514.47
2023-05-14T16:00:11.110Z,98517.84
2023-05-14T16:02:39.556Z,98515.03
2023-05-14T16:05:08.712Z,98515.38
2023-05-14T16:07:37.162Z,98514.31
2023-05-14T16:10:06.055Z,98518.16
2023-05-14T16:12:32.990Z,98516.03
2023-05-14T16:15:00.431Z,98523.47
2023-05-14T16:17:28.624Z,98517.13
2023-05-14T16:19:56.670Z,98517.78
2023-05-14T16:22:23.782Z,98518.13
2023-05-14T16:24:51.363Z,98519.00
2023-05-14T16:27:19.232Z,98519.63
2023-05-14T16:29:46.691Z,98519.63
2023-05-14T16:32:13.783Z,98522.63
2023-05-14T16:34:41.494Z,98524.97
2023-05-14T16:37:09.288Z,98527.84
2023-05-14T16:39:38.037Z,98535.00
2023-05-14T16:42:05.384Z,98524.81
2023-05-14T16:44:32.892Z,98526.25
2023-05-14T16:46:59.909Z,98529.94
2023-05-14T16:49:27.271Z,98529.19
2023-05-14T16:51:54.325Z,98522.50
2023-05-14T16:54:21.917Z,98523.97
2023-05-14T16:56:49.462Z,98519.91
2023-05-14T16:59:17.598Z,98520.13
2023-05-14T17:01:44.953Z,98522.59
2023-05-14T17:04:12.356Z,98519.41
2023-05-14T17:06:39.458Z,98522.59
2023-05-14T17:09:07.107Z,98510.16
2023-05-14T17:11:34.175Z,98514.50
2023-05-14T17:14:01.600Z,98511.00
2023-05-14T17:16:28.872Z,98511.00
2023-05-14T17:18:55.984Z,98512.91
2023-05-14T17:21:23.314Z,98509.72
2023-05-14T17:23:50.850Z,98509.50
2023-05-14T17:26:18.098Z,98505.34
2023-05-14T17:28:44.983Z,98515.66
2023-05-14T17:31:12.301Z,98508.03
2023-05-14T17:33:39.400Z,98509.72
2023-05-14T17:36:08.669Z,98513.00
2023-05-14T17:38:36.022Z,98514.09
2023-05-14T17:41:03.395Z,98514.94
2023-05-14T17:43:30.417Z,98510.50
2023-05-14T17:45:57.835Z,98507.16
2023-05-14T17:48:24.895Z,98512.72
2023-05-14T17:50:53.205Z,98515.91
2023-05-14T17:53:20.282Z,98509.97
2023-05-14T17:55:48.028Z,98507.78
2023-05-14T17:58:16.138Z,98511.63
2023-05-14T18:00:44.050Z,98519.50
2023-05-14T18:03:11.759Z,98513.75
2023-05-14T18:05:39.217Z,98510.34
2023-05-14T18:08:06.216Z,98509.47
2023-05-14T18:10:33.472Z,98504.06
2023-05-14T18:13:00.811Z,98499.59
2023-05-14T18:15:28.379Z,98501.19
2023-05-14T18:17:55.511Z,98503.09
2023-05-14T18:20:23.140Z,98500.97
2023-05-14T18:22:51.090Z,98495.84
2023-05-14T18:25:18.689Z,98503.28
2023-05-14T18:27:45.823Z,98498.13
2023-05-14T18:30:15.407Z,98492.06
2023-05-14T18:32:45.189Z,98497.59
2023-05-14T18:35:13.767Z,98500.16
2023-05-14T18:37:41.135Z,98492.28
2023-05-14T18:40:09.565Z,98498.44
2023-05-14T18:42:36.810Z,98491.34
2023-05-14T18:45:04.743Z,98489.28
2023-05-14T18:47:35.019Z,98501.28
2023-05-14T18:50:02.370Z,98488.72
2023-05-14T18:52:29.780Z,98486.81
2023-05-14T18:54:57.084Z,98483.22
2023-05-14T18:57:26.889Z,98488.53
2023-05-14T18:59:54.582Z,98482.56
2023-05-14T19:02:22.052Z,98490.19
2023-05-14T19:04:53.004Z,98493.56
2023-05-14T19:07:22.244Z,98489.59
2023-05-14T19:09:50.282Z,98496.81
2023-05-14T19:12:17.835Z,98485.53
2023-05-14T19:14:45.654Z,98490.09
2023-05-14T19:17:12.725Z,98486.81
2023-05-14T19:19:39.979Z,98482.34
2023-05-14T19:22:07.436Z,98484.81
2023-05-14T19:24:34.794Z,98480.38
2023-05-14T19:27:01.772Z,98478.56
2023-05-14T19:29:29.164Z,98473.84
2023-05-14T19:31:56.167Z,98473.19
2023-05-14T19:34:23.618Z,98470.16
2023-05-14T19:36:51.200Z,98469.22
2023-05-14T19:39:21.392Z,98468.97
2023-05-14T19:41:48.445Z,98470.88
2023-05-14T19:44:15.711Z,98467.28
2023-05-14T19:46:43.007Z,98464.75
2023-05-14T19:49:10.933Z,98452.56
2023-05-14T19:51:38.098Z,98464.78
2023-05-14T19:54:05.645Z,98461.19
2023-05-14T19:56:32.676Z,98453.66
2023-05-14T19:58:59.829Z,98455.84
2023-05-14T20:01:27.536Z,98453.75
2023-05-14T20:03:54.716Z,98443.41
2023-05-14T20:06:21.799Z,98438.63
2023-05-14T20:08:49.058Z,98440.41
2023-05-14T20:11:18.062Z,98440.09
2023-05-14T20:13:45.636Z,98437.34
2023-05-14T20:16:13.690Z,98434.53
2023-05-14T20:18:41.317Z,98431.69
2023-05-14T20:21:08.414Z,98429.13
2023-05-14T20:23:35.724Z,98427.31
2023-05-14T20:26:04.096Z,98425.94
2023-05-14T20:28:31.573Z,98419.59
2023-05-14T20:30:59.075Z,98423.38
2023-05-14T20:33:27.166Z,98416.38
2023-05-14T20:35:54.171Z,98413.19
2023-05-14T20:38:21.885Z,98407.88
2023-05-14T20:40:48.884Z,98409.66
2023-05-14T20:43:16.463Z,98408.16
2023-05-14T20:45:43.546Z,98401.13
2023-05-14T20:48:12.912Z,98403.50
2023-05-14T20:50:40.043Z,98403.78
2023-05-14T20:53:07.406Z,98396.44
2023-05-14T20:55:34.464Z,98395.69
2023-05-14T20:58:01.835Z,98400.03
2023-05-14T21:00:28.826Z,98379.69
2023-05-14T21:02:56.902Z,98387.53
2023-05-14T21:05:24.194Z,98387.31
2023-05-14T21:07:51.817Z,98373.84
2023-05-14T21:10:18.748Z,98378.22
2023-05-14T21:12:46.078Z,98371.84
2023-05-14T21:15:13.082Z,98372.81
2023-05-14T21:17:40.975Z,98367.69
2023-05-14T21:20:09.046Z,98378.59
2023-05-14T21:22:36.258Z,98364.78
2023-05-14T21:25:03.522Z,98367.53
2023-05-14T21:27:32.169Z,98349.59
2023-05-14T21:30:00.007Z,98347.59
2023-05-14T21:32:28.419Z,98346.75
2023-05-14T21:34:56.165Z,98351.50
2023-05-14T21:37:23.593Z,98354.16
2023-05-14T21:39:51.016Z,98361.00
2023-05-14T21:42:20.979Z,98340.69
2023-05-14T21:44:48.171Z,98343.47
2023-05-14T21:47:16.506Z,98336.75
2023-05-14T21:49:43.737Z,98334.41
2023-05-14T21:52:11.508Z,98333.56
2023-05-14T21:54:38.492Z,98335.56
2023-05-14T21:57:06.501Z,98333.09
2023-05-14T21:59:39.811Z,98327.22
2023-05-14T22:02:07.942Z,98324.75
2023-05-14T22:04:35.372Z,98331.19
2023-05-14T22:07:03.160Z,98328.84
2023-05-14T22:09:30.564Z,98329.03
2023-05-14T22:11:58.479Z,98317.69
2023-05-14T22:14:27.309Z,98313.31
2023-05-14T22:16:56.325Z,98311.72
2023-05-14T22:19:23.729Z,98309.19
2023-05-14T22:21:51.455Z,98305.00
2023-05-14T22:24:19.105Z,98308.63
2023-05-14T22:26:46.407Z,98307.84
2023-05-14T22:29:13.662Z,98304.44
2023-05-14T22:31:41.036Z,98291.38
2023-05-14T22:34:08.197Z,98297.56
2023-05-14T22:36:35.549Z,98294.25
2023-05-14T22:39:02.637Z,98291.69
2023-05-14T22:41:29.953Z,98294.44
2023-05-14T22:43:57.102Z,98286.97
2023-05-14T22:46:24.521Z,98286.97
2023-05-14T22:48:52.163Z,98281.75
2023-05-14T22:51:19.435Z,98280.16
2023-05-14T22:53:47.315Z,98277.59
2023-05-14T22:56:15.873Z,98271.56
2023-05-14T22:58:43.228Z,98275.88
2023-05-14T23:01:10.740Z,98267.94
2023-05-14T23:03:37.912Z,98258.50
2023-05-14T23:06:05.499Z,98251.47
2023-05-14T23:08:32.606Z,98254.22
2023-05-14T23:10:59.945Z,98254.31
2023-05-14T23:13:26.921Z,98248.06
2023-05-14T23:15:54.322Z,98250.06
2023-05-14T23:18:21.603Z,98249.09
2023-05-14T23:20:49.055Z,98245.72
2023-05-14T23:23:16.068Z,98241.38
2023-05-14T23:25:43.601Z,98241.47
2023-05-14T23:28:12.403Z,98232.00
2023-05-14T23:30:39.765Z,98231.53
2023-05-14T23:33:07.090Z,98224.63
2023-05-14T23:35:38.567Z,98223.75
2023-05-14T23:38:06.195Z,98216.88
2023-05-14T23:40:34.510Z,98216.88
2023-05-14T23:43:01.566Z,98210.66
2023-05-14T23:45:30.740Z,98203.81
2023-05-14T23:47:59.329Z,98209.31
2023-05-14T23:50:26.987Z,98194.47
2023-05-14T23:52:55.939Z,98197.97
2023-05-14T23:55:23.524Z,98200.50
2023-05-14T23:57:51.190Z,98189.34
